Time;durP1;ratioP1;P1;durP2;ratioP2;P2;SDS_P1;SDS_P2;PMS_P1;PMS_P2;Temp;Humidity;BMP_temperature;BMP_pressure;BME280_temperature;BME280_humidity;BME280_pressure;Samples;Min_cycle;Max_cycle;Signal;HPM_P1;HPM_P2
2024/01/01 00:01:01;;;;;;;38.83;27.80;;;7.40;99.90;;;-141.84;73.87;18832.34;5049710;28;20251;-58
2024/01/01 00:03:31;;;;;;;38.43;27.27;;;7.40;99.90;;;-141.84;73.98;18838.44;5049474;28;20232;-59
2024/01/01 00:06:01;;;;;;;34.73;23.93;;;7.40;99.90;;;-141.84;73.83;18856.72;5050018;28;20217;-54
2024/01/01 00:08:30;;;;;;;37.87;24.93;;;7.30;99.90;;;-141.84;72.95;18799.81;5043637;28;20673;-56
2024/01/01 00:10:58;;;;;;;27.43;18.30;;;7.40;99.90;;;-141.84;73.19;18771.38;5044603;28;20229;-56
2024/01/01 00:13:26;;;;;;;29.93;18.07;;;7.40;99.90;;;-141.84;72.51;18791.69;5043937;28;20651;-55
2024/01/01 00:15:55;;;;;;;23.53;15.17;;;;;;;-141.84;73.71;18791.69;5045684;28;20225;-58
2024/01/01 00:18:23;;;;;;;20.23;14.63;;;7.30;99.90;;;-141.84;73.10;18787.63;5045009;28;20253;-56
2024/01/01 00:20:53;;;;;;;22.63;14.87;;;7.40;99.90;;;-141.84;73.44;18769.34;5046693;28;20249;-56
2024/01/01 00:23:21;;;;;;;25.27;18.83;;;7.30;99.90;;;-141.84;74.03;18842.50;5041626;28;20303;-57
2024/01/01 00:25:49;;;;;;;22.67;16.23;;;7.40;99.90;;;-141.84;74.61;18846.56;5044720;28;20872;-59
2024/01/01 00:28:18;;;;;;;20.53;13.13;;;7.30;99.90;;;-141.84;74.14;18866.88;5046421;28;20543;-58
2024/01/01 00:30:46;;;;;;;21.50;12.27;;;7.40;99.90;;;-141.84;73.70;18816.06;5050398;28;20259;-56
2024/01/01 00:33:14;;;;;;;17.53;11.20;;;7.30;99.90;;;-141.84;73.06;18816.06;5051705;28;20224;-58
2024/01/01 00:35:43;;;;;;;15.53;11.77;;;7.30;99.90;;;-141.84;72.43;18742.94;5051323;28;20236;-59
2024/01/01 00:38:12;;;;;;;17.47;12.17;;;7.30;99.90;;;-141.84;72.40;18769.34;5051335;28;20806;-57
2024/01/01 00:40:41;;;;;;;18.93;12.20;;;7.40;99.90;;;-141.84;72.60;18749.03;5051463;28;20221;-57
2024/01/01 00:43:11;;;;;;;18.80;11.47;;;7.40;99.90;;;-141.84;73.05;18797.78;5041923;28;20194;-58
2024/01/01 00:45:39;;;;;;;17.17;12.23;;;7.40;99.90;;;-141.84;72.27;18785.59;5050016;28;20283;-57
2024/01/01 00:48:16;;;;;;;18.30;11.47;;;7.40;99.90;;;-141.84;72.60;18738.88;5051427;28;20225;-56
2024/01/01 00:50:45;;;;;;;16.03;11.20;;;7.40;99.90;;;-141.84;72.87;18783.56;5050866;28;20229;-59
2024/01/01 00:53:15;;;;;;;14.10;9.77;;;7.40;99.90;;;-141.84;72.71;18791.69;5051288;28;20225;-56
2024/01/01 00:55:43;;;;;;;14.37;9.90;;;7.30;99.90;;;-141.84;73.16;18816.06;5051187;28;20197;-56
2024/01/01 00:58:12;;;;;;;16.73;9.83;;;7.30;99.90;;;-141.84;74.43;18860.78;5051934;28;20198;-58
2024/01/01 01:00:40;;;;;;;15.67;10.53;;;7.20;99.90;;;-141.84;75.10;18935.97;5050982;28;20233;-57
2024/01/01 01:03:09;;;;;;;15.63;10.93;;;7.10;99.90;;;-141.84;76.03;18950.19;5050876;28;20322;-57
2024/01/01 01:05:37;;;;;;;16.73;10.97;;;7.10;99.90;;;-141.84;76.72;19017.25;5047112;28;20313;-57
2024/01/01 01:08:07;;;;;;;14.90;10.33;;;7.00;99.90;;;-141.84;77.23;19084.28;5046243;28;20219;-56
2024/01/01 01:10:37;;;;;;;14.67;10.30;;;6.90;99.90;;;-141.84;77.25;19074.13;5050748;28;20205;-59
2024/01/01 01:13:05;;;;;;;19.57;11.43;;;6.80;99.90;;;-141.84;75.72;18962.38;5052609;28;20301;-57
2024/01/01 01:15:34;;;;;;;14.77;10.10;;;7.00;99.90;;;-141.84;76.93;19031.47;5056741;28;20304;-56
2024/01/01 01:18:03;;;;;;;16.20;11.47;;;6.90;99.90;;;-141.84;78.20;19222.47;5057989;28;20225;-56
2024/01/01 01:20:32;;;;;;;16.57;11.30;;;6.80;99.90;;;-141.84;79.42;19411.44;5046483;28;21015;-58
2024/01/01 01:23:01;;;;;;;16.33;11.20;;;;;;;-141.84;77.13;19072.09;5056596;28;20225;-59
2024/01/01 01:25:31;;;;;;;15.60;11.10;;;6.80;99.90;;;-141.84;76.42;19025.38;5059832;28;20221;-58
2024/01/01 01:28:00;;;;;;;14.33;11.23;;;6.90;99.90;;;-141.84;75.39;18948.16;5054246;28;20213;-58
2024/01/01 01:30:29;;;;;;;17.30;11.80;;;7.00;99.90;;;-141.84;74.71;18850.63;5053813;28;20806;-58
2024/01/01 01:32:57;;;;;;;16.90;11.33;;;7.10;99.90;;;-141.84;73.15;18793.72;5057107;28;20217;-58
2024/01/01 01:35:25;;;;;;;17.27;13.00;;;7.20;99.90;;;-141.84;73.41;18793.72;5056286;28;20248;-54
2024/01/01 01:37:53;;;;;;;20.43;14.03;;;7.20;99.90;;;-141.84;72.96;18787.63;5051173;28;20248;-58
2024/01/01 01:40:22;;;;;;;15.57;12.77;;;7.20;99.90;;;-141.84;74.61;18832.34;5051500;28;20202;-58
2024/01/01 01:42:50;;;;;;;22.03;12.93;;;7.10;99.90;;;-141.84;74.31;18875.00;5051768;28;20249;-55
2024/01/01 01:45:20;;;;;;;19.67;13.80;;;7.10;99.90;;;-141.84;74.73;18899.38;5047143;28;20312;-57
2024/01/01 01:47:48;;;;;;;22.83;16.47;;;7.10;99.90;;;-141.84;73.59;18793.72;5050684;28;20310;-57
2024/01/01 01:50:18;;;;;;;26.87;18.50;;;7.00;99.90;;;-141.84;75.47;18879.06;5050945;28;20243;-58
2024/01/01 01:52:48;;;;;;;25.53;17.13;;;6.90;99.90;;;-141.84;75.08;18907.50;5050600;28;20661;-58
2024/01/01 01:55:22;;;;;;;23.53;16.40;;;;;;;-141.84;73.51;18809.97;5049034;28;20731;-58
2024/01/01 01:57:50;;;;;;;21.77;14.00;;;;;;;-141.84;74.68;18870.94;5050533;28;20251;-55
2024/01/01 02:00:21;;;;;;;17.23;12.40;;;;;;;-141.84;75.65;18889.22;5042724;28;20222;-54
2024/01/01 02:02:51;;;;;;;15.27;10.80;;;;;;;-141.84;74.71;18860.78;5050674;28;20252;-57
2024/01/01 02:05:20;;;;;;;14.13;10.93;;;;;;;-141.84;74.71;18846.56;5050542;28;20326;-57
2024/01/01 02:07:49;;;;;;;16.40;12.13;;;;;;;-141.84;75.01;18864.84;5050047;28;20618;-58
2024/01/01 02:10:17;;;;;;;16.60;11.90;;;;;;;-141.84;73.29;18779.50;5051197;28;20212;-57
2024/01/01 02:12:46;;;;;;;18.33;13.20;;;;;;;-141.84;72.46;18761.22;5050363;28;20291;-58
2024/01/01 02:15:15;;;;;;;19.77;13.13;;;;;;;-141.84;72.56;18773.41;5042382;28;20841;-59
2024/01/01 02:17:45;;;;;;;19.60;12.93;;;;;;;-141.84;71.89;18765.28;5050280;28;20248;-57
2024/01/01 02:20:13;;;;;;;15.73;11.60;;;;;;;-141.84;71.53;18702.28;5050365;28;20221;-58
2024/01/01 02:22:48;;;;;;;17.87;12.13;;;;;;;-141.84;72.04;18712.47;5050260;28;20251;-57
2024/01/01 02:25:18;;;;;;;16.73;10.07;;;;;;;-141.84;71.09;18722.63;5050523;28;20232;-58
2024/01/01 02:27:46;;;;;;;11.73;8.23;;;;;;;-141.84;71.16;18706.38;5049237;28;20300;-58
2024/01/01 02:30:15;;;;;;;12.73;7.57;;;;;;;-141.84;69.61;18681.97;5050484;28;20263;-58
2024/01/01 02:32:43;;;;;;;11.13;7.20;;;;;;;-141.84;70.21;18696.19;5049991;28;20244;-58
2024/01/01 02:35:12;;;;;;;12.43;6.90;;;;;;;-141.84;69.66;18667.75;5050035;28;20615;-56
2024/01/01 02:37:41;;;;;;;10.13;7.00;;;;;;;-141.84;69.17;18645.41;5040147;28;20204;-58
2024/01/01 02:40:11;;;;;;;9.63;5.83;;;;;;;-141.84;69.73;18667.75;5049766;28;20190;-57
2024/01/01 02:42:41;;;;;;;8.57;5.83;;;;;;;-141.84;69.09;18667.75;5047158;28;20291;-57
2024/01/01 02:45:10;;;;;;;8.40;4.80;;;;;;;-141.84;67.93;18651.50;5034590;28;20218;-56
2024/01/01 02:47:39;;;;;;;9.07;4.93;;;;;;;-141.84;66.08;18679.94;5041877;28;20226;-55
2024/01/01 02:50:08;;;;;;;6.90;4.87;;;;;;;-141.84;66.61;18643.38;5049300;28;20695;-58
2024/01/01 02:52:37;;;;;;;9.37;5.40;;;;;;;-141.84;66.55;18686.03;5049216;28;20201;-58
2024/01/01 02:55:05;;;;;;;6.97;4.97;;;;;;;-141.84;68.22;18655.56;5049751;28;20205;-57
2024/01/01 02:57:34;;;;;;;7.93;5.23;;;;;;;-141.84;69.16;18659.63;5049228;28;20300;-56
2024/01/01 03:00:08;;;;;;;9.27;5.03;;;;;;;-141.84;68.00;18679.94;5049055;28;20777;-56
2024/01/01 03:02:38;;;;;;;9.03;5.93;;;;;;;-141.84;67.10;18671.81;5041582;28;20747;-56
2024/01/01 03:05:08;;;;;;;9.70;5.93;;;;;;;-141.84;68.64;18657.59;5049037;28;20255;-55
2024/01/01 03:07:36;;;;;;;7.57;5.13;;;;;;;-141.84;69.25;18669.78;5048068;28;20281;-56
2024/01/01 03:10:06;;;;;;;7.10;4.40;;;;;;;-141.84;70.23;18690.09;5049499;28;20201;-56
2024/01/01 03:12:35;;;;;;;7.57;4.83;;;;;;;-141.84;70.26;18698.22;5049041;28;20221;-59
2024/01/01 03:15:05;;;;;;;9.00;4.50;;;;;;;-141.84;70.53;18675.88;5048795;28;20244;-57
2024/01/01 03:17:34;;;;;;;6.67;4.63;;;;;;;-141.84;70.32;18692.13;5049071;28;20245;-57
2024/01/01 03:20:04;;;;;;;5.47;3.93;;;;;;;-141.84;70.23;18716.53;5049467;28;20304;-57
2024/01/01 03:22:33;;;;;;;7.00;4.47;;;;;;;-141.84;69.58;18655.56;5049657;28;20209;-58
2024/01/01 03:25:03;;;;;;;8.27;4.67;;;;;;;-141.84;70.41;18702.28;5044155;28;20226;-58
2024/01/01 03:27:32;;;;;;;7.40;4.17;;;;;;;-141.84;68.94;18714.50;5044362;28;20221;-56
2024/01/01 03:30:01;;;;;;;8.97;4.07;;;;;;;-141.84;68.23;18669.78;5049142;28;20301;-57
2024/01/01 03:32:30;;;;;;;6.30;3.93;;;;;;;-141.84;68.04;18675.88;5049254;28;20248;-54
2024/01/01 03:34:59;;;;;;;8.13;3.63;;;;;;;-141.84;68.17;18684.00;5048756;28;20868;-55
2024/01/01 03:37:28;;;;;;;6.30;3.90;;;;;;;-141.84;67.59;18647.44;5049799;28;20225;-56
2024/01/01 03:39:56;;;;;;;5.93;3.73;;;;;;;-141.84;69.13;18671.81;5049305;28;20289;-57
2024/01/01 03:42:25;;;;;;;7.20;5.47;;;;;;;-141.84;70.20;18692.13;5048898;28;20317;-56
2024/01/01 03:44:53;;;;;;;5.70;3.70;;;;;;;-141.84;69.37;18667.75;5043955;28;20245;-58
2024/01/01 03:47:22;;;;;;;7.50;3.80;;;;;;;-141.84;68.12;18667.75;5052633;28;20230;-57
2024/01/01 03:49:57;;;;;;;5.13;3.47;;;;;;;-141.84;70.32;18698.22;5052345;28;20724;-57
2024/01/01 03:52:25;;;;;;;9.67;3.70;;;;;;;-141.84;69.56;18653.53;5053234;28;20193;-59
2024/01/01 03:54:54;;;;;;;7.13;3.40;;;;;;;-141.84;67.80;18657.59;5051884;28;20229;-59
2024/01/01 03:57:22;;;;;;;5.60;3.63;;;;;;;-141.84;69.67;18665.72;5052368;28;20264;-58
2024/01/01 03:59:51;;;;;;;5.40;3.47;;;;;;;-141.84;69.25;18686.03;5051913;28;20245;-59
2024/01/01 04:02:20;;;;;;;6.87;3.73;;;;;;;-141.84;69.24;18679.94;5052157;28;20332;-59
2024/01/01 04:04:49;;;;;;;6.30;4.37;;;;;;;-141.84;70.61;18696.19;5052285;28;20558;-60
2024/01/01 04:07:20;;;;;;;7.27;3.70;;;;;;;-141.84;70.55;18708.41;5052716;28;20194;-59
2024/01/01 04:09:48;;;;;;;8.57;4.40;;;;;;;-141.84;70.82;18714.50;5051648;28;20747;-58
2024/01/01 04:12:17;;;;;;;7.13;4.00;;;;;;;-141.84;71.01;18692.13;5052037;28;20785;-58
2024/01/01 04:14:45;;;;;;;7.70;4.37;;;;;;;-141.84;72.33;18749.03;5051622;28;20256;-58
2024/01/01 04:17:14;;;;;;;6.80;4.57;;;;;;;-141.84;71.88;18747.00;5043986;28;20221;-58
2024/01/01 04:19:47;;;;;;;7.87;4.77;;;;;;;-141.84;73.35;18783.56;5052094;28;20197;-59
2024/01/01 04:22:15;;;;;;;10.07;5.07;;;;;;;-141.84;73.82;18785.59;5051974;28;20283;-59
2024/01/01 04:24:45;;;;;;;7.57;4.70;;;;;;;-141.84;74.70;18834.38;5051670;28;20225;-59
2024/01/01 04:27:14;;;;;;;7.37;4.23;;;;;;;-141.84;74.88;18879.06;5051766;28;20656;-58
2024/01/01 04:29:43;;;;;;;6.40;4.20;;;;;;;-141.84;74.40;18838.44;5051274;28;20277;-58
2024/01/01 04:32:11;;;;;;;7.00;4.73;;;;;;;-141.84;74.33;18838.44;5051465;28;20307;-58
2024/01/01 04:34:40;;;;;;;6.40;4.40;;;;;;;-141.84;75.34;18872.97;5051483;28;20228;-58
2024/01/01 04:37:10;;;;;;;7.53;4.87;;;;;;;-141.84;74.83;18850.63;5052184;28;20198;-58
2024/01/01 04:39:38;;;;;;;10.43;4.50;;;;;;;-141.84;75.86;18899.38;5051453;28;20229;-58
2024/01/01 04:42:08;;;;;;;8.93;4.57;;;;;;;-141.84;75.26;18903.44;5051289;28;20830;-58
2024/01/01 04:44:37;;;;;;;8.13;4.63;;;;;;;-141.84;75.15;18895.31;5043253;28;20720;-58
2024/01/01 04:47:05;;;;;;;6.57;4.30;;;;;;;-141.84;75.35;18935.97;5051235;28;20708;-59
2024/01/01 04:49:34;;;;;;;4.97;3.87;;;;;;;-141.84;74.84;18862.81;5050491;28;20202;-59
2024/01/01 04:52:02;;;;;;;5.73;4.30;;;;;;;-141.84;75.31;18885.16;5050825;28;20205;-59
2024/01/01 04:54:31;;;;;;;7.23;4.47;;;;;;;-141.84;74.87;18862.81;5049738;28;20241;-59
2024/01/01 04:57:00;;;;;;;8.73;4.50;;;;;;;-141.84;74.53;18838.44;5050807;28;20257;-59
2024/01/01 04:59:30;;;;;;;6.73;4.83;;;;;;;-141.84;75.29;18875.00;5051116;28;20304;-60
2024/01/01 05:01:58;;;;;;;9.10;4.50;;;;;;;-141.84;76.11;18913.59;5051206;28;20688;-60
2024/01/01 05:04:27;;;;;;;8.30;4.70;;;;;;;-141.84;76.54;18988.78;5051477;28;20228;-58
2024/01/01 05:06:55;;;;;;;6.43;4.20;;;;;;;-141.84;76.70;19013.16;5050861;28;20225;-60
2024/01/01 05:09:24;;;;;;;7.97;4.00;;;;;;;-141.84;75.62;18897.34;5050766;28;20312;-58
2024/01/01 05:11:52;;;;;;;7.60;3.80;;;;;;;-141.84;76.05;18942.06;5050619;28;20308;-59
2024/01/01 05:14:20;;;;;;;6.77;3.93;;;;;;;-141.84;77.18;19029.44;5050688;28;20328;-59
2024/01/01 05:16:50;;;;;;;6.17;3.70;;;;;;;-141.84;75.26;18915.63;5045385;28;20671;-58
2024/01/01 05:19:19;;;;;;;5.37;3.73;;;;;;;-141.84;75.68;18895.31;5043447;28;20742;-58
2024/01/01 05:21:48;;;;;;;5.83;3.90;;;;;;;-141.84;75.19;18883.13;5050749;28;20249;-59
2024/01/01 05:24:16;;;;;;;5.60;3.50;;;;;;;-141.84;76.79;18994.88;5050292;28;20241;-59
2024/01/01 05:26:45;;;;;;;6.50;4.10;;;;;;;-141.84;76.47;19013.16;5050510;28;20297;-58
2024/01/01 05:29:13;;;;;;;4.80;3.30;;;;;;;-141.84;75.84;18946.13;5050424;28;20775;-59
2024/01/01 05:31:42;;;;;;;4.17;3.27;;;;;;;-141.84;77.41;19049.75;5050474;28;20212;-57
2024/01/01 05:34:12;;;;;;;5.53;3.70;;;;;;;-141.84;78.25;19173.69;5050766;28;20226;-59
2024/01/01 05:36:40;;;;;;;4.83;3.80;;;;;;;-141.84;77.25;19070.06;5050512;28;20271;-59
2024/01/01 05:39:09;;;;;;;6.60;3.57;;;;;;;-141.84;77.39;19100.53;5050161;28;20352;-58
2024/01/01 05:41:37;;;;;;;6.13;4.03;;;;;;;-141.84;76.86;19011.13;5050240;28;20233;-59
2024/01/01 05:44:06;;;;;;;6.20;4.00;;;;;;;-141.84;76.72;19015.19;5043075;28;20241;-59
2024/01/01 05:46:34;;;;;;;5.73;3.60;;;;;;;-141.84;77.07;19029.44;5044403;28;20308;-59
2024/01/01 05:49:03;;;;;;;6.97;3.90;;;;;;;-141.84;77.74;19163.53;5044695;28;20198;-59
2024/01/01 05:51:33;;;;;;;5.47;3.80;;;;;;;-141.84;77.85;19141.19;5043060;28;20280;-59
2024/01/01 05:54:02;;;;;;;5.27;3.90;;;;;;;-141.84;77.14;19061.94;5046474;28;20240;-59
2024/01/01 05:56:30;;;;;;;4.87;3.87;;;;;;;-141.84;76.74;19013.16;5045815;28;20681;-64
2024/01/01 05:58:59;;;;;;;8.07;3.80;;;;;;;-141.84;77.62;19124.94;5050236;28;20294;-58
2024/01/01 06:01:27;;;;;;;8.03;4.10;;;;;;;-141.84;78.40;19216.38;5050875;28;20189;-59
2024/01/01 06:03:56;;;;;;;5.47;3.50;;;;;;;-141.84;78.09;19194.03;5050143;28;20312;-59
2024/01/01 06:06:25;;;;;;;6.47;4.37;;;;;;;-141.84;77.16;19031.47;5049716;28;20371;-59
2024/01/01 06:08:55;;;;;;;5.97;3.83;;;;;;;-141.84;78.15;19277.34;5049498;28;20248;-59
2024/01/01 06:11:23;;;;;;;6.20;4.07;;;;;;;-141.84;78.25;19200.13;5049822;28;20233;-59
2024/01/01 06:13:52;;;;;;;7.37;3.90;;;;;;;-141.84;79.23;19383.00;5048663;28;20237;-59
2024/01/01 06:16:21;;;;;;;6.20;3.73;;;;;;;-141.84;78.43;19293.59;5050420;28;20201;-59
2024/01/01 06:18:49;;;;;;;5.40;3.83;;;;;;;-141.84;79.17;19354.56;5049669;28;20244;-59
2024/01/01 06:21:18;;;;;;;6.93;4.10;;;;;;;-141.84;77.26;19055.84;5041298;28;20230;-59
2024/01/01 06:23:46;;;;;;;6.93;4.60;;;;;;;-141.84;76.58;19029.44;5049407;28;20275;-58
2024/01/01 06:26:16;;;;;;;7.63;4.27;;;;;;;-141.84;76.56;18984.72;5049292;28;20233;-57
2024/01/01 06:28:45;;;;;;;8.50;4.30;;;;;;;-141.84;77.63;19110.72;5049636;28;20317;-58
2024/01/01 06:31:13;;;;;;;7.20;4.20;;;;;;;-141.84;77.09;19070.06;5050251;28;20240;-59
2024/01/01 06:33:42;;;;;;;5.90;4.00;;;;;;;-141.84;76.56;18994.88;5053922;28;20296;-59
2024/01/01 06:36:12;;;;;;;6.50;4.33;;;;;;;-141.84;76.66;19051.78;5054997;28;20224;-58
2024/01/01 06:38:40;;;;;;;5.63;3.93;;;;;;;-141.84;76.99;19017.25;5056925;28;20263;-59
2024/01/01 06:41:09;;;;;;;6.83;4.10;;;;;;;-141.84;76.90;19033.50;5054804;28;20324;-60
2024/01/01 06:43:39;;;;;;;6.73;4.20;;;;;;;-141.84;77.14;19049.75;5054077;28;20563;-58
2024/01/01 06:46:07;;;;;;;6.30;4.00;;;;;;;-141.84;77.93;19181.81;5055539;28;20195;-59
2024/01/01 06:48:36;;;;;;;7.40;4.50;;;;;;;-141.84;78.62;19238.72;5056516;28;20258;-59
2024/01/01 06:51:11;;;;;;;7.83;4.93;;;;;;;-141.84;79.06;19336.25;5052274;28;20237;-59
2024/01/01 06:53:39;;;;;;;7.40;4.43;;;;;;;-141.84;79.91;19500.88;5051739;28;20223;-59
2024/01/01 06:56:08;;;;;;;6.63;4.33;;;;;;;-141.84;79.79;19480.53;5049213;28;20232;-59
2024/01/01 06:58:43;;;;;;;6.03;4.17;;;;;;;-141.84;78.71;19313.91;5053593;28;20660;-59
2024/01/01 07:01:11;;;;;;;4.67;3.73;;;;;;;-141.84;78.68;19238.72;5052418;28;20197;-59
2024/01/01 07:03:40;;;;;;;5.27;3.80;;;;;;;-141.84;79.05;19320.00;5053447;28;20681;-60
2024/01/01 07:06:09;;;;;;;6.20;3.87;;;;;;;-141.84;79.43;19429.75;5055789;28;20220;-59
2024/01/01 07:08:37;;;;;;;5.77;3.70;;;;;;;-141.84;79.83;19533.38;5051847;28;20352;-58
2024/01/01 07:11:06;;;;;;;5.00;3.70;;;;;;;-141.84;79.98;19557.78;5045912;28;20244;-58
2024/01/01 07:13:35;;;;;;;7.13;3.90;;;;;;;-141.84;79.94;19598.41;5049280;28;20258;-59
2024/01/01 07:16:06;;;;;;;5.33;4.00;;;;;;;-141.84;77.71;19155.41;5054903;28;20276;-60
2024/01/01 07:18:34;;;;;;;6.47;3.90;;;;;;;-141.84;79.75;19417.56;5057325;28;20271;-59
2024/01/01 07:21:06;;;;;;;7.93;4.50;;;;;;;-141.84;78.34;19222.47;5061418;28;20227;-59
2024/01/01 07:23:35;;;;;;;6.53;4.50;;;;;;;-141.84;79.43;19393.16;5057366;28;20693;-58
2024/01/01 07:26:03;;;;;;;6.47;3.80;;;;;;;-141.84;80.93;19817.91;5053025;28;20300;-60
2024/01/01 07:28:32;;;;;;;6.57;4.03;;;;;;;-141.84;81.24;20157.31;5052339;28;20237;-58
2024/01/01 07:31:00;;;;;;;7.17;4.30;;;;;;;-141.84;81.33;20244.72;5053295;28;20649;-58
2024/01/01 07:33:32;;;;;;;5.53;3.93;;;;;;;-141.84;81.29;20078.06;5054565;28;20229;-58
2024/01/01 07:36:00;;;;;;;5.73;4.00;;;;;;;-141.84;81.03;20230.50;5045038;28;20221;-60
2024/01/01 07:38:29;;;;;;;7.67;4.17;;;;;;;-141.84;79.84;19588.25;5052447;28;20233;-59
2024/01/01 07:40:57;;;;;;;6.17;4.07;;;;;;;-141.84;79.24;19413.47;5052702;28;20275;-60
2024/01/01 07:43:26;;;;;;;5.80;4.17;;;;;;;-141.84;79.51;19496.81;5050283;28;20211;-56
2024/01/01 07:45:54;;;;;;;6.73;4.00;;;;;;;-141.84;79.63;19578.09;5055177;28;20271;-61
2024/01/01 07:48:23;;;;;;;7.63;4.30;;;;;;;-141.84;79.31;19480.53;5062666;28;20259;-56
2024/01/01 07:50:53;;;;;;;7.73;4.60;;;;;;;-141.84;77.60;19196.06;5060384;28;20228;-56
2024/01/01 07:53:21;;;;;;;7.37;4.53;;;;;;;-141.84;78.11;19179.78;5054991;28;20704;-56
2024/01/01 07:55:50;;;;;;;8.87;4.43;;;;;;;-141.84;78.13;19169.63;5051975;28;20687;-56
2024/01/01 07:58:19;;;;;;;5.80;4.03;;;;;;;-141.84;78.62;19254.97;5052644;28;20205;-57
2024/01/01 08:00:47;;;;;;;6.30;4.30;;;;;;;-141.84;77.48;19126.97;5052606;28;20233;-58
2024/01/01 08:03:17;;;;;;;6.87;4.43;;;;;;;-141.84;78.02;19171.66;5052798;28;20221;-58
2024/01/01 08:05:45;;;;;;;8.00;5.13;;;;;;;-141.84;78.83;19273.28;5051277;28;20252;-59
2024/01/01 08:08:15;;;;;;;7.27;4.50;;;;;;;-141.84;78.06;19163.53;5052438;28;20283;-56
2024/01/01 08:10:45;;;;;;;6.57;4.43;;;;;;;-141.84;77.78;19141.19;5052379;28;20182;-55
2024/01/01 08:13:14;;;;;;;6.50;4.33;;;;;;;-141.84;76.64;19009.09;5056798;28;20232;-57
2024/01/01 08:15:43;;;;;;;6.70;4.77;;;;;;;-141.84;74.61;18828.28;5055147;28;20229;-55
2024/01/01 08:18:11;;;;;;;6.33;4.30;;;;;;;-141.84;74.33;18824.22;5051821;28;20632;-55
2024/01/01 08:20:40;;;;;;;7.00;4.40;;;;;;;-141.84;73.52;18773.41;5063677;28;20221;-56
2024/01/01 08:23:09;;;;;;;9.47;4.00;;;;;;;-141.84;74.19;18818.09;5057872;28;20247;-56
2024/01/01 08:25:39;;;;;;;6.43;4.07;;;;;;;-141.84;73.00;18773.41;5045187;28;20193;-56
2024/01/01 08:28:07;;;;;;;9.60;5.00;;;;;;;-141.84;73.36;18771.38;5053746;28;20312;-57
2024/01/01 08:30:38;;;;;;;7.07;4.50;;;;;;;-141.84;73.34;18783.56;5056305;28;20273;-57
2024/01/01 08:33:07;;;;;;;8.10;4.23;;;;;;;-141.84;72.57;18747.00;5046108;28;20228;-59
2024/01/01 08:35:36;;;;;;;6.57;4.17;;;;;;;-141.84;72.12;18742.94;5051182;28;20261;-59
2024/01/01 08:38:04;;;;;;;8.50;4.23;;;;;;;-141.84;70.75;18679.94;5051449;28;20228;-59
2024/01/01 08:40:33;;;;;;;8.77;4.63;;;;;;;-141.84;69.61;18645.41;5055867;28;20209;-59
2024/01/01 08:43:03;;;;;;;7.10;4.30;;;;;;;-141.84;69.67;18625.09;5047534;28;20225;-59
2024/01/01 08:45:32;;;;;;;7.00;4.23;;;;;;;-141.84;70.33;18696.19;5051551;28;20868;-59
2024/01/01 08:48:00;;;;;;;6.57;3.77;;;;;;;-141.84;70.46;18704.31;5051085;28;20665;-59
2024/01/01 08:50:29;;;;;;;6.67;3.43;;;;;;;-141.84;69.46;18700.25;5056482;28;20222;-59
2024/01/01 08:52:57;;;;;;;5.83;3.70;;;;;;;-141.84;68.99;18677.91;5051008;28;20229;-59
2024/01/01 08:55:27;;;;;;;8.17;4.23;;;;;;;-141.84;68.25;18686.03;5051723;28;20201;-57
2024/01/01 08:57:55;;;;;;;6.07;3.87;;;;;;;-141.84;68.28;18653.53;5050679;28;20225;-60
2024/01/01 09:00:26;;;;;;;5.00;3.90;;;;;;;-141.84;67.56;18675.88;5053924;28;20236;-58
2024/01/01 09:02:55;;;;;;;5.27;3.57;;;;;;;-141.84;66.31;18655.56;5047327;28;20241;-58
2024/01/01 09:05:23;;;;;;;6.03;4.00;;;;;;;-141.84;66.56;18675.88;5054142;28;20589;-56
2024/01/01 09:07:52;;;;;;;5.63;3.80;;;;;;;-141.84;66.20;18696.19;5051144;28;20283;-59
2024/01/01 09:10:22;;;;;;;5.87;3.93;;;;;;;-141.84;64.92;18671.81;5051391;28;20259;-58
2024/01/01 09:12:50;;;;;;;6.97;3.87;;;;;;;-141.84;65.57;18696.19;5052271;28;20217;-57
2024/01/01 09:15:19;;;;;;;6.37;4.03;;;;;;;-141.84;66.56;18669.78;5051881;28;20221;-57
2024/01/01 09:17:49;;;;;;;6.67;3.80;;;;;;;-141.84;68.88;18712.47;5051160;28;20248;-57
2024/01/01 09:20:18;;;;;;;7.33;3.83;;;;;;;-141.84;71.13;18789.66;5060307;28;20225;-58
2024/01/01 09:22:50;;;;;;;6.97;3.67;;;;;;;-141.84;71.97;18771.38;5055709;28;20200;-58
2024/01/01 09:25:19;;;;;;;5.37;3.67;;;;;;;-141.84;72.92;18816.06;5050788;28;20201;-57
2024/01/01 09:27:48;;;;;;;5.83;3.20;;;;;;;-141.84;71.05;18753.09;5050529;28;20271;-57
2024/01/01 09:30:17;;;;;;;4.80;3.60;;;;;;;-141.84;71.19;18736.84;5050267;28;20705;-58
2024/01/01 09:32:46;;;;;;;5.17;3.50;;;;;;;-141.84;71.92;18775.44;5050475;28;20224;-57
2024/01/01 09:35:16;;;;;;;4.93;3.70;;;;;;;-141.84;72.13;18797.78;5052343;28;20229;-58
2024/01/01 09:37:44;;;;;;;5.73;3.70;;;;;;;-141.84;71.50;18771.38;5053811;28;20189;-57
2024/01/01 09:40:17;;;;;;;5.83;3.67;;;;;;;-141.84;72.18;18783.56;5047993;28;20197;-56
2024/01/01 09:42:50;;;;;;;8.07;4.20;;;;;;;-141.84;71.78;18765.28;5046837;28;20229;-58
2024/01/01 09:45:19;;;;;;;8.53;3.87;;;;;;;-141.84;71.06;18728.72;5049957;28;20233;-56
2024/01/01 09:47:48;;;;;;;7.73;4.10;;;;;;;-141.84;70.72;18738.88;5051258;28;20506;-61
2024/01/01 09:50:18;;;;;;;6.73;3.67;;;;;;;-141.84;72.69;18795.75;5056284;28;20220;-56
2024/01/01 09:52:46;;;;;;;7.73;4.30;;;;;;;-141.84;72.18;18797.78;5042943;28;20185;-57
2024/01/01 09:55:15;;;;;;;5.63;3.87;;;;;;;-141.84;71.08;18744.97;5054512;28;20629;-56
2024/01/01 09:57:44;;;;;;;7.03;4.00;;;;;;;-141.84;70.55;18749.03;5049291;28;20225;-57
2024/01/01 10:00:22;;;;;;;6.27;4.07;;;;;;;-141.84;69.79;18716.53;5050859;28;20249;-55
2024/01/01 10:02:51;;;;;;;5.80;3.40;;;;;;;-141.84;70.37;18744.97;5054823;28;20217;-57
2024/01/01 10:05:21;;;;;;;5.03;3.40;;;;;;;-141.84;68.43;18679.94;5052015;28;20247;-57
2024/01/01 10:07:50;;;;;;;6.97;4.10;;;;;;;-141.84;68.52;18696.19;5049986;28;20228;-57
2024/01/01 10:10:28;;;;;;;5.90;3.23;;;;;;;-141.84;70.50;18728.72;5052451;28;20221;-57
2024/01/01 10:13:08;;;;;;;5.73;3.70;;;;;;;-141.84;70.20;18744.97;5057083;28;20285;-57
2024/01/01 10:15:39;;;;;;;6.50;3.50;;;;;;;-141.84;68.24;18698.22;5056175;28;20307;-57
2024/01/01 10:18:13;;;;;;;5.07;3.40;;;;;;;-141.84;67.43;18706.38;5055806;28;20225;-57
2024/01/01 10:20:44;;;;;;;6.80;3.67;;;;;;;-141.84;67.26;18708.41;5053335;28;20232;-55
2024/01/01 10:23:29;;;;;;;7.47;4.00;;;;;;;-141.84;65.80;18694.16;5041906;28;20287;-56
2024/01/01 10:26:10;;;;;;;4.87;4.07;;;;;;;-141.84;67.36;18684.00;5049847;28;20221;-57
2024/01/01 10:28:40;;;;;;;5.50;3.20;;;;;;;-141.84;66.35;18688.06;5043215;28;20263;-57
2024/01/01 10:31:12;;;;;;;6.83;3.60;;;;;;;-141.84;66.62;18667.75;5053665;28;20196;-57
2024/01/01 10:33:42;;;;;;;7.67;3.20;;;;;;;-141.84;66.34;18669.78;5053960;28;20264;-58
2024/01/01 10:36:16;;;;;;;6.80;3.67;;;;;;;-141.84;66.79;18700.25;5062057;28;20221;-57
2024/01/01 10:38:48;;;;;;;6.07;3.90;;;;;;;-141.84;65.53;18657.59;5046897;28;20280;-58
2024/01/01 10:41:18;;;;;;;6.47;3.40;;;;;;;-141.84;65.22;18665.72;5049497;28;20213;-58
2024/01/01 10:43:51;;;;;;;5.27;3.40;;;;;;;-141.84;64.67;18675.88;5042661;28;20197;-56
2024/01/01 10:46:21;;;;;;;7.97;3.80;;;;;;;-141.84;63.59;18665.72;5044401;28;20201;-56
2024/01/01 10:48:51;;;;;;;5.93;3.37;;;;;;;-141.84;63.94;18649.47;5040975;28;20307;-59
2024/01/01 10:51:41;;;;;;;6.07;3.33;;;;;;;-141.84;62.55;18684.00;5043401;28;20218;-57
2024/01/01 10:54:45;;;;;;;5.20;3.13;;;;;;;-141.84;62.69;18665.72;5043958;28;20228;-59
2024/01/01 10:57:34;;;;;;;4.87;2.63;;;;;;;-141.84;61.70;18677.91;5047040;28;20212;-58
2024/01/01 11:00:13;;;;;;;6.77;2.80;;;;;;;-141.84;60.85;18663.69;5045470;28;20321;-58
2024/01/01 11:02:44;;;;;;;6.87;3.10;;;;;;;-141.84;61.13;18724.66;5045595;28;20263;-57
2024/01/01 11:05:15;;;;;;;6.03;2.80;;;;;;;-141.84;60.44;18686.03;5048126;28;20249;-57
2024/01/01 11:08:01;;;;;;;4.90;2.60;;;;;;;-141.84;60.84;18704.31;5053114;28;20228;-57
2024/01/01 11:10:44;;;;;;;4.23;2.47;;;;;;;-141.84;60.47;18667.75;5045329;28;20375;-58
2024/01/01 11:13:36;;;;;;;5.97;2.50;;;;;;;-141.84;59.85;18669.78;5042615;28;20229;-59